createdAt,value
2022-10-15T00:01:43.769Z,39.90
2022-10-15T00:04:11.643Z,35.50
2022-10-15T00:06:39.739Z,40.20
2022-10-15T00:09:07.523Z,36.40
2022-10-15T00:11:36.133Z,39.00
2022-10-15T00:14:04.264Z,37.80
2022-10-15T00:16:33.715Z,36.40
2022-10-15T00:19:01.511Z,37.90
2022-10-15T00:21:30.029Z,35.10
2022-10-15T00:23:58.237Z,38.60
2022-10-15T00:26:28.967Z,37.50
2022-10-15T00:29:01.097Z,41.60
2022-10-15T00:31:30.706Z,34.40
2022-10-15T00:34:00.994Z,34.90
2022-10-15T00:36:33.083Z,34.60
2022-10-15T00:41:37.718Z,34.10
2022-10-15T00:44:24.328Z,33.00
2022-10-15T00:46:56.888Z,34.20
2022-10-15T00:50:09.721Z,36.80
2022-10-15T00:53:37.298Z,37.50
2022-10-15T00:56:07.760Z,32.30
2022-10-15T00:58:36.344Z,31.00
2022-10-15T01:01:05.752Z,34.70
2022-10-15T01:03:35.987Z,37.80
2022-10-15T01:06:04.571Z,33.20
2022-10-15T01:08:35.502Z,36.30
2022-10-15T01:11:20.348Z,31.30
2022-10-15T01:14:05.706Z,35.00
2022-10-15T01:17:15.839Z,32.80
2022-10-15T01:20:10.480Z,35.80
2022-10-15T01:22:55.666Z,34.10
2022-10-15T01:25:42.704Z,30.30
2022-10-15T01:28:32.284Z,31.20
2022-10-15T01:31:12.489Z,34.00
2022-10-15T01:33:46.607Z,34.50
2022-10-15T01:36:51.588Z,31.20
2022-10-15T01:39:33.162Z,34.80
2022-10-15T01:42:11.586Z,29.70
2022-10-15T01:44:44.683Z,35.90
2022-10-15T01:47:49.153Z,31.10
2022-10-15T01:50:23.327Z,32.70
2022-10-15T01:52:53.091Z,28.40
2022-10-15T01:55:22.272Z,26.60
2022-10-15T01:57:51.555Z,29.30
2022-10-15T02:00:19.563Z,27.60
2022-10-15T02:02:47.871Z,31.40
2022-10-15T02:05:20.503Z,30.90
2022-10-15T02:08:31.184Z,28.90
2022-10-15T02:11:04.211Z,35.80
2022-10-15T02:14:11.212Z,31.30
2022-10-15T02:17:00.711Z,29.70
2022-10-15T02:19:51.912Z,30.50
2022-10-15T02:22:34.672Z,29.40
2022-10-15T02:25:08.414Z,28.90
2022-10-15T02:27:38.122Z,29.50
2022-10-15T02:30:08.174Z,29.20
2022-10-15T02:32:39.438Z,29.00
2022-10-15T02:35:10.363Z,32.70
2022-10-15T02:37:44.890Z,25.60
2022-10-15T02:40:13.023Z,32.20
2022-10-15T02:42:43.123Z,29.70
2022-10-15T02:45:12.894Z,30.90
2022-10-15T02:47:42.157Z,30.10
2022-10-15T02:50:10.344Z,29.90
2022-10-15T02:52:38.445Z,29.40
2022-10-15T02:55:07.025Z,26.10
2022-10-15T02:57:35.888Z,29.90
2022-10-15T03:00:05.644Z,31.30
2022-10-15T03:02:34.231Z,27.70
2022-10-15T03:05:02.362Z,30.00
2022-10-15T03:07:31.211Z,30.60
2022-10-15T03:09:59.369Z,30.50
2022-10-15T03:12:29.191Z,29.40
2022-10-15T03:14:59.243Z,27.40
2022-10-15T03:17:28.644Z,30.30
2022-10-15T03:19:56.737Z,31.10
2022-10-15T03:22:24.810Z,30.60
2022-10-15T03:24:54.414Z,36.20
2022-10-15T03:27:27.985Z,29.40
2022-10-15T03:29:56.558Z,27.90
2022-10-15T03:32:27.272Z,28.10
2022-10-15T03:34:55.365Z,28.30
2022-10-15T03:37:25.193Z,28.50
2022-10-15T03:39:53.445Z,28.40
2022-10-15T03:42:21.838Z,28.90
2022-10-15T03:44:53.694Z,30.60
2022-10-15T03:47:21.694Z,32.00
2022-10-15T03:49:50.857Z,30.20
2022-10-15T03:52:20.149Z,30.20
2022-10-15T03:54:49.598Z,31.20
2022-10-15T03:57:20.477Z,33.00
2022-10-15T03:59:55.070Z,32.90
2022-10-15T04:02:26.307Z,34.80
2022-10-15T04:04:56.446Z,32.00
2022-10-15T04:07:24.513Z,31.50
2022-10-15T04:09:52.627Z,29.60
2022-10-15T04:12:28.716Z,30.20
2022-10-15T04:14:57.301Z,31.90
2022-10-15T04:17:25.091Z,30.90
2022-10-15T04:19:53.171Z,31.00
2022-10-15T04:22:22.020Z,30.90
2022-10-15T04:24:54.775Z,30.30
2022-10-15T04:27:29.515Z,29.10
2022-10-15T04:30:12.230Z,29.00
2022-10-15T04:32:46.185Z,32.60
2022-10-15T04:35:14.311Z,30.60
2022-10-15T04:38:02.402Z,27.10
2022-10-15T04:40:46.806Z,29.70
2022-10-15T04:43:15.932Z,29.90
2022-10-15T04:45:44.280Z,26.90
2022-10-15T04:48:12.437Z,29.00
2022-10-15T04:50:40.933Z,33.80
2022-10-15T04:53:17.706Z,30.10
2022-10-15T04:55:47.458Z,27.70
2022-10-15T04:58:16.291Z,29.00
2022-10-15T05:00:44.572Z,33.20
2022-10-15T05:03:38.614Z,28.20
2022-10-15T05:06:13.045Z,30.00
2022-10-15T05:08:44.663Z,33.90
2022-10-15T05:11:27.777Z,28.60
2022-10-15T05:13:57.850Z,30.70
2022-10-15T05:16:28.402Z,33.50
2022-10-15T05:19:08.897Z,26.80
2022-10-15T05:21:39.857Z,26.80
2022-10-15T05:24:13.900Z,31.90
2022-10-15T05:27:03.359Z,27.80
2022-10-15T05:29:35.208Z,30.20
2022-10-15T05:32:03.121Z,33.70
2022-10-15T05:34:34.691Z,30.50
2022-10-15T05:37:07.079Z,28.90
2022-10-15T05:39:47.407Z,26.10
2022-10-15T05:42:26.161Z,26.00
2022-10-15T05:44:58.262Z,31.80
2022-10-15T05:47:26.537Z,32.90
2022-10-15T05:50:16.166Z,32.30
2022-10-15T05:52:49.733Z,27.20
2022-10-15T05:55:32.656Z,28.50
2022-10-15T05:58:45.008Z,29.10
2022-10-15T06:01:21.229Z,28.00
2022-10-15T06:04:44.510Z,28.20
2022-10-15T06:10:01.474Z,26.70
2022-10-15T06:28:29.026Z,31.10
2022-10-15T06:31:04.174Z,31.70
2022-10-15T06:33:32.718Z,29.80
2022-10-15T06:36:08.126Z,31.10
2022-10-15T06:38:49.405Z,30.80
2022-10-15T06:41:17.850Z,31.40
2022-10-15T06:43:49.322Z,31.40
2022-10-15T06:46:17.373Z,31.30
2022-10-15T06:48:45.861Z,34.90
2022-10-15T06:51:14.946Z,31.70
2022-10-15T06:53:48.911Z,30.70
2022-10-15T06:56:16.857Z,32.30
2022-10-15T06:58:48.719Z,35.10
2022-10-15T07:01:17.229Z,34.90
2022-10-15T07:03:53.919Z,34.80
2022-10-15T07:06:21.774Z,35.90
2022-10-15T07:11:51.159Z,30.00
2022-10-15T07:14:19.064Z,31.20
2022-10-15T07:16:55.113Z,30.70
2022-10-15T07:19:24.498Z,28.60
2022-10-15T07:21:52.451Z,32.30
2022-10-15T07:24:23.050Z,32.10
2022-10-15T07:26:51.311Z,29.50
2022-10-15T07:29:21.700Z,28.90
2022-10-15T07:31:49.639Z,31.30
2022-10-15T07:34:19.716Z,28.30
2022-10-15T07:36:47.510Z,37.10
2022-10-15T07:39:18.124Z,35.30
2022-10-15T07:41:46.748Z,35.00
2022-10-15T07:44:17.711Z,38.60
2022-10-15T07:46:48.259Z,37.50
2022-10-15T07:49:16.480Z,35.00
2022-10-15T07:51:45.889Z,31.50
2022-10-15T07:54:13.773Z,34.00
2022-10-15T07:56:41.682Z,31.90
2022-10-15T07:59:09.588Z,35.80
2022-10-15T08:01:39.059Z,32.00
2022-10-15T08:04:07.162Z,32.30
2022-10-15T08:06:38.548Z,39.10
2022-10-15T08:09:10.167Z,40.40
2022-10-15T08:11:39.298Z,39.70
2022-10-15T08:14:08.830Z,39.20
2022-10-15T08:16:40.760Z,32.60
2022-10-15T08:19:09.859Z,34.50
2022-10-15T08:21:40.933Z,37.60
2022-10-15T08:24:13.184Z,39.20
2022-10-15T08:26:41.384Z,38.50
2022-10-15T08:29:11.951Z,36.70
2022-10-15T08:31:40.182Z,34.90
2022-10-15T08:34:08.538Z,38.00
2022-10-15T08:36:36.899Z,40.30
2022-10-15T08:39:07.314Z,34.90
2022-10-15T08:41:40.338Z,42.20
2022-10-15T08:44:22.303Z,40.50
2022-10-15T08:46:54.457Z,36.20
2022-10-15T08:49:45.979Z,40.60
2022-10-15T08:52:42.645Z,36.70
2022-10-15T08:55:18.263Z,33.60
2022-10-15T08:57:51.870Z,32.70
2022-10-15T09:00:48.225Z,32.10
2022-10-15T09:03:29.037Z,32.80
2022-10-15T09:06:14.591Z,33.40
2022-10-15T09:09:09.483Z,36.50
2022-10-15T09:12:12.592Z,35.80
2022-10-15T09:14:45.626Z,33.60
2022-10-15T09:17:27.217Z,32.70
2022-10-15T09:19:57.409Z,34.20
2022-10-15T09:22:29.588Z,35.90
2022-10-15T09:24:58.686Z,32.50
2022-10-15T09:27:34.335Z,36.00
2022-10-15T09:30:06.717Z,38.10
2022-10-15T09:32:54.281Z,35.80
2022-10-15T09:35:29.835Z,32.70
2022-10-15T09:38:06.512Z,36.60
2022-10-15T09:41:16.902Z,30.80
2022-10-15T09:43:48.974Z,28.70
2022-10-15T09:46:17.266Z,32.70
2022-10-15T09:48:53.730Z,32.00
2022-10-15T09:52:07.809Z,32.50
2022-10-15T09:54:44.840Z,32.40
2022-10-15T09:57:14.528Z,30.90
2022-10-15T10:00:03.743Z,29.50
2022-10-15T10:02:41.776Z,26.60
2022-10-15T10:05:33.312Z,31.50
2022-10-15T10:08:09.569Z,27.90
2022-10-15T10:10:41.740Z,27.30
2022-10-15T10:13:25.740Z,26.90
2022-10-15T10:16:02.878Z,28.50
2022-10-15T10:18:35.708Z,25.20
2022-10-15T10:21:06.505Z,27.00
2022-10-15T10:23:39.925Z,26.80
2022-10-15T10:26:10.387Z,26.90
2022-10-15T10:28:49.407Z,29.50
2022-10-15T10:31:17.986Z,25.40
2022-10-15T10:33:48.279Z,26.60
2022-10-15T10:36:29.074Z,24.70
2022-10-15T10:39:14.299Z,23.60
2022-10-15T10:41:56.548Z,27.60
2022-10-15T10:44:50.112Z,22.70
2022-10-15T10:47:40.076Z,21.90
2022-10-15T10:50:57.398Z,19.70
2022-10-15T10:53:45.153Z,21.10
2022-10-15T10:56:16.097Z,20.30
2022-10-15T10:59:08.792Z,21.70
2022-10-15T11:02:23.652Z,17.00
2022-10-15T11:07:55.820Z,18.40
2022-10-15T11:10:39.867Z,18.80
2022-10-15T11:16:47.763Z,16.20
2022-10-15T11:20:06.199Z,14.20
2022-10-15T11:23:07.698Z,16.60
2022-10-15T11:26:07.677Z,14.60
2022-10-15T11:28:55.763Z,13.70
2022-10-15T11:32:14.700Z,14.80
2022-10-15T11:35:51.657Z,12.80
2022-10-15T11:38:37.296Z,14.40
2022-10-15T11:41:12.719Z,15.60
2022-10-15T11:43:54.370Z,14.80
2022-10-15T11:46:25.330Z,13.00
2022-10-15T11:49:10.352Z,14.00
2022-10-15T11:52:19.971Z,8.90
2022-10-15T11:55:11.564Z,6.90
2022-10-15T11:57:45.117Z,4.40
2022-10-15T12:00:25.480Z,4.20
2022-10-15T12:03:15.811Z,5.00
2022-10-15T12:06:11.831Z,4.70
2022-10-15T12:08:47.236Z,5.80
2022-10-15T12:11:55.196Z,5.50
2022-10-15T12:14:47.078Z,7.50
2022-10-15T12:17:34.139Z,9.40
2022-10-15T12:20:22.503Z,9.00
2022-10-15T12:22:55.357Z,8.40
2022-10-15T12:25:35.738Z,8.40
2022-10-15T12:28:23.367Z,8.60
2022-10-15T12:31:11.749Z,8.20
2022-10-15T12:33:55.837Z,8.40
2022-10-15T12:36:30.942Z,11.50
2022-10-15T12:39:00.790Z,8.70
2022-10-15T12:41:43.042Z,8.90
2022-10-15T12:44:29.121Z,9.70
2022-10-15T12:46:58.432Z,11.20
2022-10-15T12:49:32.501Z,10.50
2022-10-15T12:52:47.038Z,9.80
2022-10-15T12:55:27.120Z,12.30
2022-10-15T12:58:04.863Z,11.60
2022-10-15T13:00:36.217Z,11.80
2022-10-15T13:03:10.081Z,11.00
2022-10-15T13:05:43.608Z,14.70
2022-10-15T13:08:23.347Z,10.80
2022-10-15T13:10:58.193Z,11.00
2022-10-15T13:13:32.652Z,15.80
2022-10-15T13:16:08.072Z,14.70
2022-10-15T13:18:36.425Z,14.80
2022-10-15T13:21:13.779Z,14.80
2022-10-15T13:23:49.326Z,14.10
2022-10-15T13:26:35.095Z,13.80
2022-10-15T13:29:05.887Z,15.20
2022-10-15T13:31:37.380Z,13.70
2022-10-15T13:34:25.466Z,13.50
2022-10-15T13:37:02.931Z,12.20
2022-10-15T13:39:41.833Z,14.00
2022-10-15T13:42:18.589Z,15.10
2022-10-15T13:45:17.614Z,17.30
2022-10-15T13:47:59.841Z,15.70
2022-10-15T13:50:36.991Z,17.20
2022-10-15T13:53:21.848Z,12.90
2022-10-15T13:55:54.615Z,15.50
2022-10-15T13:58:35.783Z,14.80
2022-10-15T14:01:27.317Z,15.90
2022-10-15T14:04:03.213Z,18.90
2022-10-15T14:06:38.650Z,17.00
2022-10-15T14:09:28.420Z,15.90
2022-10-15T14:12:03.265Z,19.10
2022-10-15T14:14:48.844Z,15.60
2022-10-15T14:17:18.993Z,16.00
2022-10-15T14:20:02.160Z,18.00
2022-10-15T14:22:36.533Z,18.90
2022-10-15T14:25:17.508Z,16.00
2022-10-15T14:27:46.244Z,18.90
2022-10-15T14:30:23.115Z,17.90
2022-10-15T14:32:55.143Z,15.20
2022-10-15T14:38:27.161Z,20.80
2022-10-15T14:41:10.068Z,18.10
2022-10-15T14:43:41.028Z,17.70
2022-10-15T14:46:16.986Z,19.20
2022-10-15T14:48:45.163Z,19.40
2022-10-15T14:51:19.669Z,20.30
2022-10-15T14:53:47.871Z,21.00
2022-10-15T14:56:26.712Z,19.10
2022-10-15T14:58:56.935Z,20.90
2022-10-15T15:01:27.583Z,22.80
2022-10-15T15:03:57.143Z,19.20
2022-10-15T15:06:25.457Z,21.20
2022-10-15T15:08:53.592Z,21.60
2022-10-15T15:11:26.090Z,21.60
2022-10-15T15:13:56.382Z,19.30
2022-10-15T15:16:26.226Z,19.90
2022-10-15T15:19:10.007Z,19.20
2022-10-15T15:21:46.606Z,20.30
2022-10-15T15:24:22.367Z,18.50
2022-10-15T15:26:57.161Z,19.50
2022-10-15T15:29:35.034Z,21.20
2022-10-15T15:32:08.009Z,23.90
2022-10-15T15:34:36.136Z,18.70
2022-10-15T15:37:13.933Z,25.50
2022-10-15T15:39:43.366Z,25.90
2022-10-15T15:42:24.270Z,24.20
2022-10-15T15:44:53.315Z,24.30
2022-10-15T15:47:21.884Z,24.10
2022-10-15T15:49:50.124Z,21.90
2022-10-15T15:52:19.971Z,20.70
2022-10-15T15:54:47.983Z,16.20
2022-10-15T15:57:16.243Z,21.00
2022-10-15T15:59:44.718Z,18.50
2022-10-15T16:02:16.789Z,17.70
2022-10-15T16:07:19.450Z,20.20
2022-10-15T16:09:50.199Z,19.70
2022-10-15T16:12:17.990Z,19.10
2022-10-15T16:14:46.120Z,16.60
2022-10-15T16:17:14.610Z,16.50
2022-10-15T16:19:44.904Z,17.70
2022-10-15T16:22:16.178Z,18.00
2022-10-15T16:24:44.611Z,14.60
2022-10-15T16:27:15.072Z,12.80
2022-10-15T16:29:44.712Z,13.70
2022-10-15T16:32:13.527Z,14.70
2022-10-15T16:34:42.224Z,12.00
2022-10-15T16:37:11.252Z,14.50
2022-10-15T16:39:39.400Z,14.00
2022-10-15T16:42:11.254Z,13.60
2022-10-15T16:44:39.686Z,15.00
2022-10-15T16:47:11.571Z,21.50
2022-10-15T16:49:49.343Z,17.70
2022-10-15T16:52:34.429Z,22.10
2022-10-15T16:55:29.423Z,22.60
2022-10-15T16:58:03.875Z,23.80
2022-10-15T17:01:45.317Z,23.60
2022-10-15T17:05:04.705Z,23.10
2022-10-15T17:07:28.399Z,19.00
2022-10-15T17:14:24.373Z,22.40
2022-10-15T17:20:36.693Z,20.40
2022-10-15T17:23:24.486Z,21.80
2022-10-15T17:26:30.664Z,21.50
2022-10-15T17:29:55.764Z,18.90
2022-10-15T17:32:44.101Z,19.90
2022-10-15T17:35:11.838Z,18.60
2022-10-15T17:37:42.557Z,16.10
2022-10-15T17:40:11.343Z,20.70
2022-10-15T17:42:42.843Z,16.90
2022-10-15T17:45:11.332Z,21.20
2022-10-15T17:47:39.313Z,14.40
2022-10-15T17:50:07.922Z,17.70
2022-10-15T17:52:36.163Z,18.20
2022-10-15T17:55:04.590Z,21.00
2022-10-15T17:57:32.399Z,19.30
2022-10-15T18:00:00.557Z,19.80
2022-10-15T18:02:29.144Z,21.10
2022-10-15T18:04:58.316Z,20.70
2022-10-15T18:07:26.265Z,23.20
2022-10-15T18:09:54.294Z,25.30
2022-10-15T18:12:22.086Z,28.00
2022-10-15T18:14:50.476Z,27.20
2022-10-15T18:17:19.363Z,32.10
2022-10-15T18:19:47.095Z,31.90
2022-10-15T18:22:14.945Z,26.90
2022-10-15T18:24:42.719Z,28.60
2022-10-15T18:27:10.605Z,31.40
2022-10-15T18:29:38.452Z,28.50
2022-10-15T18:32:06.290Z,28.40
2022-10-15T18:34:34.604Z,27.00
2022-10-15T18:37:02.322Z,29.60
2022-10-15T18:39:30.102Z,28.00
2022-10-15T18:41:57.898Z,28.10
2022-10-15T18:44:25.724Z,25.80
2022-10-15T18:46:53.572Z,26.60
2022-10-15T18:49:23.040Z,27.90
2022-10-15T18:51:52.967Z,26.20
2022-10-15T18:54:23.708Z,22.70
2022-10-15T18:56:53.081Z,21.60
2022-10-15T18:59:21.672Z,22.30
2022-10-15T19:01:52.736Z,21.80
2022-10-15T19:04:25.396Z,17.90
2022-10-15T19:06:54.561Z,19.40
2022-10-15T19:09:26.352Z,18.30
2022-10-15T19:11:55.626Z,17.40
2022-10-15T19:14:25.362Z,19.40
2022-10-15T19:16:53.495Z,19.60
2022-10-15T19:19:23.418Z,20.70
2022-10-15T19:21:51.913Z,20.90
2022-10-15T19:24:21.202Z,19.40
2022-10-15T19:26:50.468Z,16.70
2022-10-15T19:29:19.064Z,15.60
2022-10-15T19:31:49.110Z,19.40
2022-10-15T19:34:18.705Z,17.90
2022-10-15T19:36:48.541Z,17.10
2022-10-15T19:39:19.234Z,19.60
2022-10-15T19:41:47.749Z,17.00
2022-10-15T19:44:17.328Z,16.30
2022-10-15T19:46:46.697Z,15.90
2022-10-15T19:49:14.780Z,16.80
2022-10-15T19:51:42.852Z,16.10
2022-10-15T19:54:10.617Z,16.90
2022-10-15T19:56:38.419Z,15.60
2022-10-15T19:59:06.797Z,15.40
2022-10-15T20:01:34.681Z,18.40
2022-10-15T20:04:06.096Z,14.80
2022-10-15T20:06:36.618Z,15.70
2022-10-15T20:09:06.531Z,18.40
2022-10-15T20:11:34.984Z,14.20
2022-10-15T20:14:03.533Z,19.90
2022-10-15T20:16:33.169Z,16.90
2022-10-15T20:19:05.849Z,19.10
2022-10-15T20:21:33.941Z,17.50
2022-10-15T20:24:04.480Z,19.20
2022-10-15T20:26:33.359Z,16.90
2022-10-15T20:29:01.517Z,17.10
2022-10-15T20:31:32.995Z,17.70
2022-10-15T20:36:32.923Z,20.50
2022-10-15T20:39:01.808Z,17.80
2022-10-15T20:41:34.057Z,22.50
2022-10-15T20:44:02.025Z,18.70
2022-10-15T20:46:37.271Z,18.60
2022-10-15T20:51:41.669Z,19.90
2022-10-15T20:54:10.780Z,23.20
2022-10-15T20:56:39.078Z,22.50
2022-10-15T21:07:16.811Z,23.40
2022-10-15T21:09:46.323Z,26.20
2022-10-15T21:12:24.087Z,25.40
2022-10-15T21:15:23.721Z,21.70
2022-10-15T21:18:20.831Z,23.70
2022-10-15T21:21:46.499Z,20.30
2022-10-15T21:32:08.839Z,25.10
2022-10-15T21:34:38.471Z,25.70
2022-10-15T21:37:08.959Z,25.30
2022-10-15T21:39:38.884Z,24.70
2022-10-15T21:42:08.754Z,27.90
2022-10-15T21:44:38.180Z,24.80
2022-10-15T21:47:10.450Z,26.20
2022-10-15T21:49:42.193Z,25.30
2022-10-15T21:52:12.209Z,24.70
2022-10-15T21:54:41.472Z,27.50
2022-10-15T21:57:11.031Z,28.20
2022-10-15T21:59:39.869Z,23.90
2022-10-15T22:02:12.497Z,24.50
2022-10-15T22:04:44.260Z,24.40
2022-10-15T22:07:12.188Z,24.80
2022-10-15T22:09:40.034Z,24.80
2022-10-15T22:12:08.243Z,23.10
2022-10-15T22:14:36.103Z,25.30
2022-10-15T22:17:03.901Z,22.50
2022-10-15T22:19:31.813Z,27.10
2022-10-15T22:21:59.558Z,28.30
2022-10-15T22:24:27.565Z,26.10
2022-10-15T22:26:55.617Z,27.30
2022-10-15T22:29:25.162Z,25.70
2022-10-15T22:31:53.818Z,26.50
2022-10-15T22:34:22.593Z,24.60
2022-10-15T22:36:50.589Z,27.00
2022-10-15T22:39:19.027Z,27.30
2022-10-15T22:41:47.887Z,27.00
2022-10-15T22:44:18.200Z,26.00
2022-10-15T22:46:47.246Z,22.40
2022-10-15T22:49:17.235Z,22.90
2022-10-15T22:51:46.435Z,26.80
2022-10-15T22:54:15.981Z,23.40
2022-10-15T22:56:43.778Z,28.00
2022-10-15T22:59:11.653Z,24.80
2022-10-15T23:01:39.466Z,26.40
2022-10-15T23:04:08.015Z,25.40
2022-10-15T23:06:37.631Z,25.70
2022-10-15T23:09:06.660Z,26.00
2022-10-15T23:11:37.506Z,22.20
2022-10-15T23:14:07.844Z,26.90
2022-10-15T23:16:39.456Z,25.70
2022-10-15T23:19:13.503Z,26.60
2022-10-15T23:21:47.785Z,23.90
2022-10-15T23:24:17.601Z,23.60
2022-10-15T23:26:46.969Z,26.00
2022-10-15T23:29:20.085Z,26.80
2022-10-15T23:31:49.078Z,22.40
2022-10-15T23:34:25.578Z,25.50
2022-10-15T23:36:54.232Z,27.00
2022-10-15T23:39:25.839Z,29.00
2022-10-15T23:41:54.685Z,25.50
2022-10-15T23:44:25.626Z,28.20
2022-10-15T23:46:54.435Z,27.50
2022-10-15T23:49:22.192Z,24.40
2022-10-15T23:51:51.204Z,26.00
2022-10-15T23:54:19.564Z,27.80
2022-10-15T23:56:48.036Z,26.70
2022-10-15T23:59:17.439Z,26.70
